Millboro, VA

6:24 PM EDT on August 31, 2015 (GMT -0400)
RAWS | | Change Station
CLOSE
Current Station
Personal Weather Station
Location: Warm Springs, VA
Elevation: 2580 ft
Nearby Weather Stations

Elev 2580 ft 37.99 °N, 79.76 °W | Updated 23 minutes ago

Mostly Cloudy
Mostly Cloudy
80.0 °F
Feels Like 82 °F
N
1.0
Wind Variable Wind from NNE
Gusts 6.0 mph

Today
High -- | Low -- °F
--% Chance of Precip.
Yesterday
High -- | Low -- °F
Precip. -- in
6:47 AM 7:50 PM
Waning Gibbous, 93% visible
Pressure 30.22 in
Visibility 10.0 miles
Clouds Mostly Cloudy 9500 ft
Heat Index 82 °F
Dew Point 66.0 °F
Humidity 62%
Rainfall in
Snow Depth Not available.
UV 1 out of 12
Pollen 8.70 out of 12
Air Quality Not available.
Flu Activity Not available.
METAR KHSP 312210Z AUTO 00000KT 10SM BKN095 22/16 A3022 RMK AO2 T02180163
Pressure 30.22 in
Visibility 10.0 miles
Clouds Mostly Cloudy 9500 ft
Heat Index 82 °F
Dew Point 66.0 °F
Humidity 62%
Rainfall in
Snow Depth Not available.
UV 1 out of 12
Pollen 8.70 out of 12
Air Quality Not available.
Flu Activity Not available.
METAR KHSP 312210Z AUTO 00000KT 10SM BKN095 22/16 A3022 RMK AO2 T02180163

10-Day Weather Forecast

×

Almanac

Astronomy

Aug. 31, 2015 Rise Set
Actual Time
Civil Twilight
Nautical Twilight
Astronomical Twilight
Moon
Length of Visible Light
Length of Day
Tomorrow will be .
, % of the Moon is Illuminated

Today's Extremes

State Highs State Lows

Community

WunderPhotos

Upload Photos

1,851,390 photos uploaded!

WunderBlogs® & News

Nearby

Air Quality

  Air Quality AQ Index Pollutant
Not available.

Snow Depth

Station Depth Elevation

Earthquake Activity

City Distance Mag. Time & Date
Minimum magnitude displayed is 2.5.

Coastal Water Temperatures

Place Temperature

Stations

Nearby Weather Stations

Station Location Temp. Windchill Dew Point Humidity Wind Precip. Elev Updated Type